createdAt,value
2023-04-08T00:00:17.353Z,7.53
2023-04-08T00:02:44.045Z,7.40
2023-04-08T00:05:10.669Z,7.70
2023-04-08T00:07:37.322Z,7.10
2023-04-08T00:10:04.249Z,7.20
2023-04-08T00:12:30.864Z,6.67
2023-04-08T00:14:57.962Z,7.03
2023-04-08T00:17:24.451Z,6.47
2023-04-08T00:19:51.853Z,6.67
2023-04-08T00:22:18.546Z,6.07
2023-04-08T00:24:45.088Z,6.60
2023-04-08T00:27:11.582Z,6.43
2023-04-08T00:29:38.034Z,6.30
2023-04-08T00:32:04.885Z,6.43
2023-04-08T00:34:31.304Z,6.30
2023-04-08T00:36:59.968Z,6.47
2023-04-08T00:39:26.683Z,5.73
2023-04-08T00:41:53.949Z,6.87
2023-04-08T00:44:20.433Z,6.83
2023-04-08T00:46:47.404Z,7.30
2023-04-08T00:49:13.924Z,7.80
2023-04-08T00:51:40.773Z,7.90
2023-04-08T00:54:07.617Z,7.90
2023-04-08T00:56:35.830Z,7.80
2023-04-08T00:59:02.471Z,8.33
2023-04-08T01:01:39.881Z,7.60
2023-04-08T01:04:33.523Z,7.30
2023-04-08T01:07:17.903Z,8.17
2023-04-08T01:09:54.977Z,7.20
2023-04-08T01:12:29.794Z,8.53
2023-04-08T01:15:08.283Z,7.93
2023-04-08T01:17:37.338Z,7.80
2023-04-08T01:24:38.956Z,7.40
2023-04-08T01:27:06.882Z,8.20
2023-04-08T01:29:35.428Z,7.87
2023-04-08T01:32:04.351Z,8.27
2023-04-08T01:34:32.597Z,7.30
2023-04-08T01:36:59.940Z,7.70
2023-04-08T01:39:27.793Z,7.37
2023-04-08T01:41:55.953Z,6.50
2023-04-08T01:44:26.253Z,6.93
2023-04-08T01:46:54.756Z,6.87
2023-04-08T01:49:23.915Z,7.10
2023-04-08T01:51:52.091Z,6.47
2023-04-08T01:54:18.576Z,6.87
2023-04-08T01:56:46.525Z,6.80
2023-04-08T01:59:15.878Z,6.83
2023-04-08T02:01:44.924Z,6.20
2023-04-08T02:04:13.411Z,6.50
2023-04-08T02:06:40.292Z,6.20
2023-04-08T02:09:07.782Z,6.60
2023-04-08T02:11:35.644Z,6.90
2023-04-08T02:14:02.235Z,6.57
2023-04-08T02:16:54.340Z,7.00
2023-04-08T02:19:35.829Z,6.43
2023-04-08T02:22:07.439Z,6.60
2023-04-08T02:24:35.242Z,6.80
2023-04-08T02:27:04.126Z,6.87
2023-04-08T02:29:33.818Z,6.57
2023-04-08T02:32:02.109Z,6.70
2023-04-08T02:34:30.203Z,6.43
2023-04-08T02:36:56.788Z,6.47
2023-04-08T02:39:31.144Z,5.80
2023-04-08T02:41:57.806Z,6.10
2023-04-08T02:44:24.887Z,6.17
2023-04-08T02:46:51.354Z,6.40
2023-04-08T02:49:17.781Z,6.90
2023-04-08T02:51:44.414Z,6.47
2023-04-08T02:54:10.890Z,6.80
2023-04-08T02:56:37.427Z,6.63
2023-04-08T02:59:04.085Z,7.00
2023-04-08T03:01:31.375Z,7.10
2023-04-08T03:03:57.912Z,6.20
2023-04-08T03:06:24.464Z,6.57
2023-04-08T03:08:51.188Z,6.57
2023-04-08T03:11:18.026Z,7.03
2023-04-08T03:13:44.536Z,6.00
2023-04-08T03:16:11.064Z,6.87
2023-04-08T03:18:37.890Z,6.20
2023-04-08T03:21:04.473Z,6.90
2023-04-08T03:23:30.925Z,6.80
2023-04-08T03:25:57.419Z,6.80
2023-04-08T03:28:23.869Z,7.17
2023-04-08T03:30:50.926Z,7.07
2023-04-08T03:33:17.374Z,7.17
2023-04-08T03:35:44.016Z,6.47
2023-04-08T03:38:10.620Z,6.70
2023-04-08T03:40:37.145Z,6.33
2023-04-08T03:43:05.686Z,6.13
2023-04-08T03:45:32.362Z,6.70
2023-04-08T03:47:58.862Z,6.40
2023-04-08T03:50:25.557Z,6.70
2023-04-08T03:52:52.024Z,6.17
2023-04-08T03:55:18.541Z,6.53
2023-04-08T03:57:45.706Z,6.83
2023-04-08T04:00:12.840Z,7.20
2023-04-08T04:02:39.514Z,7.33
2023-04-08T04:05:06.731Z,14.63
2023-04-08T04:07:33.157Z,11.40
2023-04-08T04:09:59.752Z,12.30
2023-04-08T04:12:26.607Z,98.43
2023-04-08T04:14:53.121Z,44.83
2023-04-08T04:17:19.631Z,40.00
2023-04-08T04:19:46.158Z,27.43
2023-04-08T04:22:12.589Z,10.50
2023-04-08T04:24:39.137Z,8.63
2023-04-08T04:27:05.616Z,6.40
2023-04-08T04:29:32.167Z,7.23
2023-04-08T04:31:58.635Z,6.70
2023-04-08T04:34:25.083Z,6.50
2023-04-08T04:36:51.516Z,6.73
2023-04-08T04:39:18.140Z,6.87
2023-04-08T04:41:44.721Z,6.60
2023-04-08T04:44:11.425Z,6.80
2023-04-08T04:46:38.061Z,6.50
2023-04-08T04:49:04.554Z,7.00
2023-04-08T04:51:34.150Z,6.53
2023-04-08T04:54:00.861Z,6.77
2023-04-08T04:56:27.783Z,6.33
2023-04-08T04:58:54.368Z,6.80
2023-04-08T05:01:20.971Z,6.83
2023-04-08T05:03:47.627Z,6.73
2023-04-08T05:06:14.059Z,7.23
2023-04-08T05:08:41.133Z,7.30
2023-04-08T05:11:11.089Z,6.53
2023-04-08T05:13:37.580Z,6.87
2023-04-08T05:16:04.197Z,6.90
2023-04-08T05:18:30.797Z,6.87
2023-04-08T05:20:57.225Z,6.77
2023-04-08T05:23:23.665Z,6.97
2023-04-08T05:25:50.277Z,7.90
2023-04-08T05:28:16.782Z,6.77
2023-04-08T05:30:43.201Z,7.27
2023-04-08T05:33:09.734Z,7.50
2023-04-08T05:35:36.243Z,7.03
2023-04-08T05:38:02.753Z,6.50
2023-04-08T05:40:29.166Z,7.60
2023-04-08T05:42:55.860Z,7.13
2023-04-08T05:45:22.298Z,7.93
2023-04-08T05:47:48.910Z,7.57
2023-04-08T05:50:15.475Z,7.37
2023-04-08T05:52:46.233Z,7.30
2023-04-08T05:55:14.392Z,7.97
2023-04-08T05:57:41.389Z,7.90
2023-04-08T06:00:09.846Z,8.03
2023-04-08T06:02:37.398Z,7.60
2023-04-08T06:05:04.733Z,7.77
2023-04-08T06:07:32.690Z,8.87
2023-04-08T06:09:59.132Z,8.50
2023-04-08T06:12:25.685Z,8.67
2023-04-08T06:14:56.253Z,8.77
2023-04-08T06:17:22.833Z,8.97
2023-04-08T06:19:49.309Z,9.07
2023-04-08T06:22:16.808Z,9.20
2023-04-08T06:24:43.317Z,9.10
2023-04-08T06:27:09.933Z,8.90
2023-04-08T06:29:36.427Z,6.53
2023-04-08T06:32:02.954Z,7.90
2023-04-08T06:34:29.437Z,6.93
2023-04-08T06:36:56.012Z,7.10
2023-04-08T06:39:22.765Z,7.53
2023-04-08T06:41:49.653Z,7.97
2023-04-08T06:44:32.336Z,11.03
2023-04-08T06:46:58.857Z,10.00
2023-04-08T06:49:26.957Z,12.67
2023-04-08T06:51:53.576Z,12.10
2023-04-08T06:54:20.023Z,11.57
2023-04-08T06:56:46.800Z,11.67
2023-04-08T06:59:13.257Z,11.70
2023-04-08T07:01:40.028Z,11.57
2023-04-08T07:04:06.632Z,12.53
2023-04-08T07:06:33.293Z,12.67
2023-04-08T07:08:59.727Z,12.77
2023-04-08T07:11:26.618Z,12.97
2023-04-08T07:13:53.093Z,12.50
2023-04-08T07:16:19.629Z,12.60
2023-04-08T07:18:47.497Z,13.03
2023-04-08T07:21:13.957Z,13.47
2023-04-08T07:23:40.456Z,12.80
2023-04-08T07:26:06.931Z,13.13
2023-04-08T07:28:33.366Z,13.77
2023-04-08T07:31:14.137Z,13.83
2023-04-08T07:33:40.850Z,12.57
2023-04-08T07:36:09.468Z,13.00
2023-04-08T07:38:36.462Z,11.60
2023-04-08T07:41:02.931Z,12.83
2023-04-08T07:43:31.409Z,12.87
2023-04-08T07:46:05.136Z,11.83
2023-04-08T07:48:32.425Z,12.57
2023-04-08T07:51:09.677Z,11.83
2023-04-08T07:53:38.280Z,11.60
2023-04-08T07:56:11.393Z,11.70
2023-04-08T07:58:38.032Z,11.87
2023-04-08T08:01:04.525Z,12.27
2023-04-08T08:03:33.751Z,13.53
2023-04-08T08:06:00.659Z,13.17
2023-04-08T08:08:27.182Z,14.50
2023-04-08T08:10:53.678Z,13.23
2023-04-08T08:13:22.069Z,12.77
2023-04-08T08:15:52.513Z,12.93
2023-04-08T08:18:19.429Z,12.93
2023-04-08T08:20:45.984Z,12.50
2023-04-08T08:23:12.519Z,13.13
2023-04-08T08:25:38.979Z,12.83
2023-04-08T08:28:05.411Z,12.93
2023-04-08T08:30:33.878Z,13.23
2023-04-08T08:33:00.859Z,11.50
2023-04-08T08:35:27.401Z,12.37
2023-04-08T08:37:53.852Z,12.43
2023-04-08T08:40:20.406Z,12.40
2023-04-08T08:42:53.291Z,12.93
2023-04-08T08:45:20.938Z,11.90
2023-04-08T08:47:49.721Z,12.57
2023-04-08T08:50:17.488Z,11.17
2023-04-08T08:52:51.857Z,11.57
2023-04-08T08:55:35.081Z,11.70
2023-04-08T08:58:10.133Z,10.43
2023-04-08T09:00:42.411Z,11.60
2023-04-08T09:03:21.108Z,12.67
2023-04-08T09:05:53.379Z,12.47
2023-04-08T09:08:30.225Z,11.73
2023-04-08T09:11:17.709Z,12.37
2023-04-08T09:13:45.532Z,11.70
2023-04-08T09:16:15.061Z,11.83
2023-04-08T09:18:44.435Z,12.40
2023-04-08T09:21:12.572Z,13.03
2023-04-08T09:23:47.122Z,11.87
2023-04-08T09:26:17.248Z,12.27
2023-04-08T09:28:57.588Z,12.43
2023-04-08T09:31:31.902Z,11.73
2023-04-08T09:34:00.053Z,12.97
2023-04-08T09:36:27.511Z,12.37
2023-04-08T09:38:55.454Z,12.37
2023-04-08T09:41:23.717Z,12.43
2023-04-08T09:43:54.248Z,12.37
2023-04-08T09:46:32.264Z,12.07
2023-04-08T09:49:09.598Z,13.03
2023-04-08T09:51:49.191Z,12.30
2023-04-08T09:54:21.420Z,12.80
2023-04-08T09:56:54.327Z,12.57
2023-04-08T09:59:27.310Z,12.57
2023-04-08T10:01:56.287Z,11.87
2023-04-08T10:04:26.359Z,12.57
2023-04-08T10:06:57.686Z,12.47
2023-04-08T10:09:24.243Z,13.83
2023-04-08T10:11:51.298Z,13.40
2023-04-08T10:14:17.793Z,13.10
2023-04-08T10:16:44.583Z,14.37
2023-04-08T10:19:44.522Z,13.93
2023-04-08T10:22:47.978Z,14.30
2023-04-08T10:25:17.092Z,15.47
2023-04-08T10:27:44.762Z,15.03
2023-04-08T10:30:31.467Z,15.83
2023-04-08T10:33:00.091Z,15.07
2023-04-08T10:35:30.294Z,15.47
2023-04-08T10:37:58.619Z,15.30
2023-04-08T10:40:25.421Z,12.77
2023-04-08T10:42:56.063Z,11.77
2023-04-08T10:45:23.154Z,13.77
2023-04-08T10:47:50.030Z,14.00
2023-04-08T10:50:18.866Z,12.73
2023-04-08T10:52:52.662Z,13.20
2023-04-08T10:55:29.539Z,13.43
2023-04-08T10:57:58.083Z,12.83
2023-04-08T11:00:39.234Z,13.50
2023-04-08T11:03:13.096Z,15.03
2023-04-08T11:05:41.248Z,14.40
2023-04-08T11:08:08.298Z,14.40
2023-04-08T11:10:39.045Z,14.50
2023-04-08T11:13:09.786Z,14.67
2023-04-08T11:15:36.898Z,14.43
2023-04-08T11:18:05.392Z,14.73
2023-04-08T11:20:36.050Z,14.47
2023-04-08T11:23:03.471Z,14.90
2023-04-08T11:25:30.413Z,13.90
2023-04-08T11:27:57.156Z,13.03
2023-04-08T11:30:24.213Z,13.17
2023-04-08T11:32:52.170Z,13.37
2023-04-08T11:35:18.929Z,13.83
2023-04-08T11:37:47.621Z,14.30
2023-04-08T11:40:20.589Z,14.07
2023-04-08T11:42:47.358Z,14.37
2023-04-08T11:45:16.375Z,14.30
2023-04-08T11:47:43.642Z,14.37
2023-04-08T11:50:10.445Z,13.90
2023-04-08T11:52:48.493Z,14.07
2023-04-08T11:55:31.950Z,14.53
2023-04-08T11:58:04.257Z,13.67
2023-04-08T12:00:31.168Z,13.33
2023-04-08T12:02:57.736Z,14.63
2023-04-08T12:05:24.380Z,13.40
2023-04-08T12:07:50.998Z,13.57
2023-04-08T12:10:17.554Z,12.33
2023-04-08T12:12:43.966Z,12.80
2023-04-08T12:15:11.305Z,12.17
2023-04-08T12:17:38.893Z,12.13
2023-04-08T12:20:06.693Z,12.47
2023-04-08T12:22:33.429Z,12.23
2023-04-08T12:24:59.971Z,12.50
2023-04-08T12:27:26.374Z,11.87
2023-04-08T12:29:53.470Z,11.27
2023-04-08T12:32:20.472Z,10.97
2023-04-08T12:34:47.273Z,11.03
2023-04-08T12:37:13.698Z,11.10
2023-04-08T12:39:40.387Z,10.63
2023-04-08T12:42:07.084Z,10.63
2023-04-08T12:44:33.536Z,11.47
2023-04-08T12:47:00.072Z,11.60
2023-04-08T12:49:28.029Z,11.67
2023-04-08T12:51:54.952Z,11.60
2023-04-08T12:54:21.800Z,9.80
2023-04-08T12:56:48.806Z,8.70
2023-04-08T12:59:15.581Z,9.67
2023-04-08T13:01:42.608Z,9.70
2023-04-08T13:04:09.296Z,9.97
2023-04-08T13:06:35.817Z,10.77
2023-04-08T13:09:02.298Z,10.47
2023-04-08T13:11:28.750Z,10.17
2023-04-08T13:13:55.251Z,9.57
2023-04-08T13:16:21.854Z,9.30
2023-04-08T13:18:48.639Z,8.87
2023-04-08T13:21:15.466Z,7.73
2023-04-08T13:23:42.332Z,8.23
2023-04-08T13:26:08.953Z,8.33
2023-04-08T13:28:40.802Z,8.20
2023-04-08T13:31:10.347Z,8.20
2023-04-08T13:33:37.745Z,7.40
2023-04-08T13:36:04.615Z,6.93
2023-04-08T13:38:31.485Z,7.03
2023-04-08T13:40:57.915Z,7.10
2023-04-08T13:43:24.507Z,7.63
2023-04-08T13:45:51.230Z,7.63
2023-04-08T13:48:17.780Z,7.50
2023-04-08T13:50:44.370Z,6.70
2023-04-08T13:53:10.866Z,7.50
2023-04-08T13:55:37.422Z,7.87
2023-04-08T13:58:08.724Z,7.33
2023-04-08T14:00:40.735Z,8.37
2023-04-08T14:03:07.332Z,8.70
2023-04-08T14:05:33.892Z,7.43
2023-04-08T14:08:00.419Z,8.47
2023-04-08T14:10:26.924Z,8.43
2023-04-08T14:12:54.307Z,8.70
2023-04-08T14:15:21.041Z,8.77
2023-04-08T14:17:48.348Z,8.67
2023-04-08T14:20:15.526Z,8.47
2023-04-08T14:22:41.956Z,8.83
2023-04-08T14:25:08.986Z,9.40
2023-04-08T14:27:35.612Z,9.20
2023-04-08T14:30:02.565Z,8.70
2023-04-08T14:32:29.009Z,9.17
2023-04-08T14:34:55.680Z,9.30
2023-04-08T14:37:22.139Z,8.87
2023-04-08T14:39:48.546Z,8.70
2023-04-08T14:42:16.666Z,8.27
2023-04-08T14:44:44.085Z,8.17
2023-04-08T14:47:12.117Z,8.23
2023-04-08T14:49:38.553Z,8.00
2023-04-08T14:52:05.213Z,9.47
2023-04-08T14:54:31.634Z,9.30
2023-04-08T14:56:58.611Z,8.97
2023-04-08T14:59:25.273Z,9.50
2023-04-08T15:01:51.866Z,9.23
2023-04-08T15:04:18.415Z,9.73
2023-04-08T15:06:44.930Z,9.43
2023-04-08T15:09:11.439Z,9.37
2023-04-08T15:11:37.905Z,9.00
2023-04-08T15:14:04.319Z,9.37
2023-04-08T15:16:30.878Z,8.67
2023-04-08T15:18:59.819Z,8.83
2023-04-08T15:21:27.293Z,8.70
2023-04-08T15:23:53.909Z,8.03
2023-04-08T15:26:21.432Z,8.07
2023-04-08T15:28:47.905Z,7.90
2023-04-08T15:31:14.438Z,7.87
2023-04-08T15:33:42.886Z,7.60
2023-04-08T15:36:09.406Z,8.93
2023-04-08T15:38:35.876Z,7.93
2023-04-08T15:41:02.645Z,7.60
2023-04-08T15:43:29.898Z,7.93
2023-04-08T15:45:56.499Z,8.37
2023-04-08T15:48:22.905Z,8.70
2023-04-08T15:50:49.422Z,8.37
2023-04-08T15:53:16.010Z,8.50
2023-04-08T15:55:42.468Z,8.60
2023-04-08T15:58:08.925Z,7.57
2023-04-08T16:00:35.377Z,7.10
2023-04-08T16:03:02.053Z,7.13
2023-04-08T16:05:30.281Z,7.20
2023-04-08T16:07:57.960Z,7.27
2023-04-08T16:10:24.629Z,6.07
2023-04-08T16:12:51.552Z,6.90
2023-04-08T16:15:18.567Z,7.07
2023-04-08T16:17:51.333Z,7.07
2023-04-08T16:20:20.436Z,7.77
2023-04-08T16:22:47.129Z,7.97
2023-04-08T16:25:14.852Z,7.03
2023-04-08T16:27:41.268Z,7.40
2023-04-08T16:30:08.401Z,7.33
2023-04-08T16:32:34.847Z,7.40
2023-04-08T16:35:01.326Z,7.40
2023-04-08T16:37:27.774Z,6.50
2023-04-08T16:39:54.534Z,6.53
2023-04-08T16:42:20.967Z,5.90
2023-04-08T16:44:47.438Z,5.70
2023-04-08T16:47:13.859Z,6.07
2023-04-08T16:49:40.307Z,4.97
2023-04-08T16:52:07.405Z,5.63
2023-04-08T16:54:33.994Z,5.77
2023-04-08T16:57:00.421Z,5.60
2023-04-08T16:59:28.086Z,5.73
2023-04-08T17:01:54.561Z,6.60
2023-04-08T17:04:21.145Z,6.50
2023-04-08T17:06:48.023Z,6.40
2023-04-08T17:11:41.065Z,6.77
2023-04-08T17:14:07.710Z,6.57
2023-04-08T17:16:34.168Z,6.67
2023-04-08T17:19:01.024Z,6.13
2023-04-08T17:21:27.969Z,5.93
2023-04-08T17:23:54.484Z,7.03
2023-04-08T17:26:22.140Z,6.73
2023-04-08T17:28:49.361Z,7.10
2023-04-08T17:31:16.044Z,6.50
2023-04-08T17:33:42.495Z,6.43
2023-04-08T17:36:09.110Z,6.57
2023-04-08T17:38:39.604Z,7.00
2023-04-08T17:41:07.872Z,6.37
2023-04-08T17:43:34.614Z,6.50
2023-04-08T17:46:01.886Z,6.33
2023-04-08T17:48:28.782Z,7.10
2023-04-08T17:51:03.113Z,6.37
2023-04-08T17:53:29.886Z,6.77
2023-04-08T17:55:56.395Z,6.30
2023-04-08T17:58:23.507Z,7.87
2023-04-08T18:00:50.749Z,6.93
2023-04-08T18:03:17.612Z,6.47
2023-04-08T18:05:44.113Z,6.70
2023-04-08T18:08:10.903Z,6.83
2023-04-08T18:10:38.482Z,6.50
2023-04-08T18:13:11.197Z,6.63
2023-04-08T18:15:38.609Z,6.47
2023-04-08T18:18:05.444Z,6.30
2023-04-08T18:20:35.578Z,6.90
2023-04-08T18:23:04.330Z,6.80
2023-04-08T18:25:32.219Z,6.53
2023-04-08T18:27:59.231Z,7.00
2023-04-08T18:30:26.074Z,6.77
2023-04-08T18:32:52.571Z,7.03
2023-04-08T18:35:19.058Z,6.90
2023-04-08T18:37:45.669Z,7.23
2023-04-08T18:40:12.790Z,7.20
2023-04-08T18:42:39.212Z,6.90
2023-04-08T18:45:06.381Z,7.00
2023-04-08T18:47:32.991Z,7.40
2023-04-08T18:49:59.488Z,7.33
2023-04-08T18:52:25.936Z,7.60
2023-04-08T18:54:52.668Z,7.53
2023-04-08T18:57:20.020Z,7.23
2023-04-08T18:59:48.315Z,6.83
2023-04-08T19:02:15.173Z,7.17
2023-04-08T19:04:42.045Z,7.10
2023-04-08T19:07:09.018Z,7.23
2023-04-08T19:09:35.657Z,6.57
2023-04-08T19:12:02.296Z,7.43
2023-04-08T19:14:28.787Z,6.90
2023-04-08T19:16:55.320Z,7.27
2023-04-08T19:19:21.781Z,7.43
2023-04-08T19:21:48.834Z,7.20
2023-04-08T19:24:15.371Z,7.20
2023-04-08T19:26:41.839Z,8.00
2023-04-08T19:29:09.358Z,7.30
2023-04-08T19:31:35.926Z,7.63
2023-04-08T19:34:02.439Z,7.07
2023-04-08T19:36:28.905Z,7.57
2023-04-08T19:38:55.548Z,7.03
2023-04-08T19:41:23.047Z,6.57
2023-04-08T19:43:49.666Z,6.80
2023-04-08T19:46:16.464Z,8.00
2023-04-08T19:48:43.039Z,7.53
2023-04-08T19:51:15.777Z,14.77
2023-04-08T19:53:42.683Z,9.83
2023-04-08T19:56:09.274Z,7.70
2023-04-08T19:58:35.720Z,6.57
2023-04-08T20:01:03.749Z,6.57
2023-04-08T20:03:30.393Z,7.60
2023-04-08T20:05:57.114Z,6.50
2023-04-08T20:08:23.641Z,5.83
2023-04-08T20:10:50.269Z,5.17
2023-04-08T20:13:16.895Z,5.97
2023-04-08T20:15:44.198Z,5.23
2023-04-08T20:18:10.778Z,5.53
2023-04-08T20:20:37.647Z,6.13
2023-04-08T20:23:04.154Z,5.40
2023-04-08T20:25:30.596Z,4.93
2023-04-08T20:27:57.357Z,5.13
2023-04-08T20:30:24.026Z,5.30
2023-04-08T20:32:50.736Z,5.17
2023-04-08T20:35:17.420Z,5.70
2023-04-08T20:37:43.963Z,5.23
2023-04-08T20:40:10.556Z,5.40
2023-04-08T20:42:38.524Z,6.03
2023-04-08T20:45:06.054Z,5.87
2023-04-08T20:47:33.401Z,6.23
2023-04-08T20:49:59.974Z,5.70
2023-04-08T20:52:26.533Z,6.13
2023-04-08T20:54:52.959Z,5.40
2023-04-08T20:57:19.479Z,5.60
2023-04-08T20:59:46.059Z,5.90
2023-04-08T21:02:12.728Z,5.40
2023-04-08T21:04:39.758Z,5.50
2023-04-08T21:07:06.241Z,5.07
2023-04-08T21:09:32.694Z,7.10
2023-04-08T21:11:59.197Z,7.50
2023-04-08T21:14:25.678Z,9.30
2023-04-08T21:16:52.282Z,8.87
2023-04-08T21:19:18.741Z,10.03
2023-04-08T21:21:46.295Z,12.43
2023-04-08T21:24:12.974Z,10.90
2023-04-08T21:26:39.476Z,9.97
2023-04-08T21:29:05.940Z,10.80
2023-04-08T21:31:32.719Z,10.00
2023-04-08T21:33:59.270Z,11.37
2023-04-08T21:36:27.897Z,9.30
2023-04-08T21:38:54.444Z,9.17
2023-04-08T21:41:21.286Z,8.43
2023-04-08T21:43:48.512Z,8.87
2023-04-08T21:46:15.262Z,7.90
2023-04-08T21:48:42.128Z,8.30
2023-04-08T21:51:08.702Z,8.40
2023-04-08T21:53:35.293Z,7.53
2023-04-08T21:56:01.807Z,8.20
2023-04-08T21:58:28.295Z,6.87
2023-04-08T22:00:54.920Z,6.97
2023-04-08T22:03:21.864Z,7.60
2023-04-08T22:05:48.417Z,6.73
2023-04-08T22:08:14.876Z,6.83
2023-04-08T22:10:41.404Z,7.30
2023-04-08T22:13:07.883Z,8.67
2023-04-08T22:15:34.324Z,8.83
2023-04-08T22:18:01.585Z,8.20
2023-04-08T22:20:28.243Z,8.23
2023-04-08T22:22:54.663Z,9.60
2023-04-08T22:25:21.339Z,9.33
2023-04-08T22:27:47.888Z,9.30
2023-04-08T22:30:14.372Z,9.40
2023-04-08T22:32:41.188Z,8.20
2023-04-08T22:35:08.156Z,9.30
2023-04-08T22:37:34.559Z,10.00
2023-04-08T22:40:01.369Z,8.13
2023-04-08T22:42:27.886Z,8.10
2023-04-08T22:44:54.374Z,8.43
2023-04-08T22:47:21.292Z,8.00
2023-04-08T22:49:47.717Z,9.17
2023-04-08T22:52:14.194Z,7.07
2023-04-08T22:54:40.826Z,7.23
2023-04-08T22:57:07.324Z,6.97
2023-04-08T22:59:33.787Z,7.63
2023-04-08T23:02:00.579Z,9.53
2023-04-08T23:04:27.145Z,9.47
2023-04-08T23:06:53.656Z,8.67
2023-04-08T23:09:22.968Z,9.43
2023-04-08T23:11:49.389Z,9.20
2023-04-08T23:14:16.110Z,9.90
2023-04-08T23:16:42.657Z,9.23
2023-04-08T23:19:09.091Z,9.10
2023-04-08T23:21:36.056Z,8.80
2023-04-08T23:24:02.705Z,8.60
2023-04-08T23:26:29.214Z,8.47
2023-04-08T23:28:55.849Z,8.67
2023-04-08T23:31:22.417Z,9.00
2023-04-08T23:33:49.087Z,9.20
2023-04-08T23:36:15.847Z,8.87
2023-04-08T23:38:42.310Z,7.63
2023-04-08T23:41:08.909Z,7.97
2023-04-08T23:43:36.012Z,8.20
2023-04-08T23:46:02.639Z,8.10
2023-04-08T23:48:29.079Z,7.37
2023-04-08T23:50:55.933Z,7.40
2023-04-08T23:53:22.363Z,7.67
2023-04-08T23:55:48.927Z,8.33
2023-04-08T23:58:15.534Z,7.70
